Terminal Aerodrome Forecast
Issued by NWS

Home | Current Version | Previous Version | Text Only | Print | Product List | Glossary On
Versions: 1 2 3 4 5 6 7 8 9 10 11 12 13 14 15 16 17 18 19 20 21 22 23 24
000
FTUS43 KPAH 170500
TAFCGI
TAF
KCGI 170520Z 1706/1806 VRB04KT P6SM SCT035 BKN090
     FM170800 VRB03KT P6SM VCSH SCT020 BKN035
     FM171300 20005KT P6SM BKN020
     FM171700 21008KT P6SM VCTS BKN025CB
     FM180000 VRB03KT P6SM BKN030=

USA.gov is the U.S. government's official web portal to all federal, state and local government web resources and services.